AXCGGARGarmin  id=247  GPS 72 Software Version 2.50|2140330771
HFDTE231213
HFPLTPilot:UNREGISTERED
HFTZOTimezone:1
HFSITSite:
HPGTYGliderType:
HPGIDGliderID:
HFDTM100DATUM:WGS-1984
HFCIDCOMPETITIONID:
HFCCLCOMPETITIONCLASS:
LXCG     ICON:C:\Program Files\CompeGPS\symbols\IconsPlay\cronos.ico
LXCG     COLOR:000255255
I00
B1523223747876N00053940WA0000000077
B1523273747897N00053905WA0000000077
B1523323747896N00053876WA0000000077
B1523373747896N00053882WA0000000077
B1523423747906N00053906WA0000000077
B1523473747909N00053934WA0000000077
B1523523747915N00053963WA0000000077
B1523573747912N00053983WA0000000079
B1524023747903N00053995WA0000000089
B1524073747892N00054009WA0000000089
B1524123747879N00054024WA0000000089
B1524173747867N00054037WA0000000089
B1524223747859N00054050WA0000000089
B1524273747853N00054067WA0000000090
B1524323747848N00054079WA0000000095
B1524373747847N00054098WA0000000098
B1524423747848N00054111WA0000000102
B1524473747848N00054122WA0000000106
B1524523747851N00054137WA0000000112
B1524573747857N00054154WA0000000118
B1525023747867N00054175WA0000000127
B1525073747878N00054195WA0000000134
B1525123747886N00054214WA0000000143
B1525173747899N00054233WA0000000150
B1525223747903N00054256WA0000000153
B1525273747892N00054260WA0000000158
B1525323747888N00054232WA0000000161
B1525373747884N00054196WA0000000168
B1525423747879N00054163WA0000000172
B1525473747867N00054141WA0000000176
B1525523747865N00054155WA0000000177
B1525573747885N00054168WA0000000183
B1526023747897N00054185WA0000000190
B1526073747912N00054203WA0000000195
B1526123747928N00054223WA0000000202
B1526173747945N00054238WA0000000206
B1526223747940N00054241WA0000000210
B1526273747930N00054240WA0000000213
B1526323747923N00054245WA0000000214
B1526373747914N00054231WA0000000215
B1526423747904N00054213WA0000000216
B1526473747895N00054192WA0000000216
B1526523747896N00054155WA0000000217
B1526573747885N00054144WA0000000218
B1527023747898N00054159WA0000000219
B1527073747918N00054175WA0000000221
B1527123747921N00054192WA0000000227
B1527173747918N00054200WA0000000229
B1527223747927N00054218WA0000000232
B1527273747927N00054229WA0000000233
B1527323747920N00054207WA0000000235
B1527373747912N00054181WA0000000235
B1527423747903N00054157WA0000000238
B1527473747895N00054160WA0000000239
B1527523747911N00054178WA0000000239
B1527573747916N00054194WA0000000239
B1528023747909N00054183WA0000000240
B1528073747904N00054162WA0000000242
B1528123747900N00054169WA0000000241
B1528173747898N00054179WA0000000244
B1528223747898N00054188WA0000000245
B1528273747895N00054200WA0000000243
B1528323747893N00054213WA0000000245
B1528373747892N00054225WA0000000246
B1528423747891N00054239WA0000000244
B1528473747890N00054255WA0000000242
B1528523747888N00054271WA0000000239
B1528573747887N00054286WA0000000236
B1529023747883N00054300WA0000000232
B1529073747882N00054320WA0000000226
B1529123747881N00054341WA0000000221
B1529173747879N00054362WA0000000214
B1529223747878N00054382WA0000000210
B1529273747878N00054405WA0000000205
B1529323747887N00054429WA0000000202
B1529373747910N00054448WA0000000202
B1529423747942N00054459WA0000000201
B1529473747968N00054475WA0000000204
B1529523747994N00054487WA0000000204
B1529573748015N00054502WA0000000204
B1530023748021N00054526WA0000000203
B1530073748024N00054550WA0000000204
B1530123748029N00054576WA0000000202
B1530173748028N00054602WA0000000199
B1530223748026N00054628WA0000000198
B1530273748029N00054655WA0000000197
B1530323748040N00054682WA0000000197
B1530373748045N00054711WA0000000199
B1530423748046N00054737WA0000000202
B1530473748042N00054757WA0000000204
B1530523748037N00054743WA0000000205
B1530573748050N00054718WA0000000208
B1531023748052N00054696WA0000000208
B1531073748046N00054674WA0000000206
B1531123748036N00054656WA0000000205
B1531173748027N00054637WA0000000203
B1531223748014N00054645WA0000000201
B1531273748029N00054672WA0000000199
B1531323748044N00054699WA0000000202
B1531373748050N00054725WA0000000204
B1531423748051N00054754WA0000000208
B1531473748046N00054775WA0000000211
B1531523748037N00054790WA0000000215
B1531573748031N00054807WA0000000219
B1532023748027N00054826WA0000000220
B1532073748023N00054846WA0000000222
B1532123748021N00054868WA0000000226
B1532173748021N00054889WA0000000227
B1532223748015N00054895WA0000000226
B1532273748018N00054865WA0000000226
B1532323748024N00054833WA0000000231
B1532373748033N00054805WA0000000232
B1532423748044N00054775WA0000000230
B1532473748054N00054749WA0000000230
B1532523748063N00054723WA0000000230
B1532573748065N00054699WA0000000231
B1533023748064N00054674WA0000000234
B1533073748056N00054651WA0000000236
B1533123748052N00054626WA0000000236
B1533173748052N00054594WA0000000235
B1533223748054N00054559WA0000000236
B1533273748049N00054531WA0000000239
B1533323748044N00054500WA0000000241
B1533373748030N00054490WA0000000242
B1533423748032N00054510WA0000000239
B1533473748046N00054531WA0000000241
B1533523748057N00054557WA0000000245
B1533573748057N00054584WA0000000249
B1534023748061N00054609WA0000000255
B1534073748074N00054627WA0000000260
B1534123748082N00054650WA0000000267
B1534173748091N00054674WA0000000274
B1534223748088N00054692WA0000000280
B1534273748081N00054698WA0000000280
B1534323748083N00054669WA0000000282
B1534373748082N00054640WA0000000284
B1534423748075N00054617WA0000000285
B1534473748078N00054586WA0000000286
B1534523748076N00054554WA0000000292
B1534573748075N00054522WA0000000295
B1535023748068N00054495WA0000000301
B1535073748059N00054488WA0000000305
B1535123748072N00054507WA0000000308
B1535173748080N00054532WA0000000311
B1535223748081N00054553WA0000000318
B1535273748080N00054574WA0000000321
B1535323748078N00054595WA0000000330
B1535373748076N00054617WA0000000336
B1535423748067N00054627WA0000000340
B1535473748060N00054611WA0000000340
B1535523748055N00054583WA0000000338
B1535573748050N00054561WA0000000342
B1536023748045N00054566WA0000000343
B1536073748059N00054590WA0000000344
B1536123748064N00054614WA0000000350
B1536173748061N00054630WA0000000355
B1536223748060N00054646WA0000000356
B1536273748073N00054670WA0000000356
B1536323748069N00054682WA0000000357
B1536373748063N00054662WA0000000356
B1536423748063N00054630WA0000000356
B1536473748061N00054598WA0000000355
B1536523748061N00054567WA0000000356
B1536573748054N00054555WA0000000355
B1537023748059N00054574WA0000000354
B1537073748066N00054591WA0000000355
B1537123748067N00054604WA0000000355
B1537173748068N00054623WA0000000356
B1537223748069N00054643WA0000000355
B1537273748069N00054664WA0000000355
B1537323748067N00054684WA0000000354
B1537373748062N00054701WA0000000353
B1537423748059N00054721WA0000000351
B1537473748056N00054741WA0000000347
B1537523748052N00054761WA0000000344
B1537573748048N00054778WA0000000339
B1538023748044N00054795WA0000000333
B1538073748035N00054814WA0000000327
B1538123748027N00054830WA0000000324
B1538173748021N00054852WA0000000318
B1538223748016N00054875WA0000000321
B1538273748016N00054891WA0000000323
B1538323748015N00054909WA0000000320
B1538373748019N00054931WA0000000317
B1538423748026N00054953WA0000000313
B1538473748032N00054978WA0000000310
B1538523748040N00055000WA0000000307
B1538573748048N00055023WA0000000303
B1539023748055N00055045WA0000000298
B1539073748064N00055069WA0000000295
B1539123748073N00055092WA0000000289
B1539173748081N00055116WA0000000284
B1539223748086N00055138WA0000000276
B1539273748079N00055147WA0000000270
B1539323748066N00055150WA0000000263
B1539373748051N00055139WA0000000255
B1539423748035N00055119WA0000000251
B1539473748022N00055092WA0000000248
B1539523748016N00055060WA0000000248
B1539573748015N00055031WA0000000247
B1540023748013N00054998WA0000000245
B1540073748015N00054963WA0000000241
B1540123748016N00054929WA0000000241
B1540173748014N00054899WA0000000240
B1540223748007N00054873WA0000000238
B1540273747999N00054847WA0000000233
B1540323747998N00054817WA0000000232
B1540373748006N00054783WA0000000232
B1540423748023N00054750WA0000000233
B1540473748037N00054715WA0000000235
B1540523748045N00054686WA0000000236
B1540573748047N00054656WA0000000235
B1541023748046N00054626WA0000000234
B1541073748048N00054593WA0000000232
B1541123748047N00054556WA0000000235
B1541173748043N00054520WA0000000239
B1541223748035N00054494WA0000000243
B1541273748022N00054495WA0000000244
B1541323748033N00054519WA0000000249
B1541373748051N00054534WA0000000253
B1541423748063N00054553WA0000000256
B1541473748069N00054575WA0000000263
B1541523748072N00054597WA0000000267
B1541573748071N00054612WA0000000274
B1542023748082N00054634WA0000000279
B1542073748091N00054657WA0000000288
B1542123748093N00054680WA0000000293
B1542173748087N00054696WA0000000294
B1542223748083N00054676WA0000000293
B1542273748082N00054645WA0000000293
B1542323748076N00054615WA0000000296
B1542373748075N00054588WA0000000301
B1542423748070N00054560WA0000000304
B1542473748069N00054531WA0000000311
B1542523748069N00054501WA0000000314
B1542573748060N00054494WA0000000316
B1543023748070N00054515WA0000000319
B1543073748078N00054533WA0000000323
B1543123748080N00054547WA0000000325
B1543173748081N00054559WA0000000324
B1543223748080N00054579WA0000000325
B1543273748083N00054602WA0000000329
B1543323748087N00054623WA0000000331
B1543373748087N00054646WA0000000336
B1543423748094N00054667WA0000000333
B1543473748088N00054680WA0000000335
B1543523748081N00054691WA0000000331
B1543573748073N00054701WA0000000325
B1544023748060N00054699WA0000000326
B1544073748049N00054701WA0000000331
B1544123748041N00054710WA0000000328
B1544173748031N00054720WA0000000326
B1544223748023N00054731WA0000000326
B1544273748016N00054744WA0000000324
B1544323748011N00054761WA0000000322
B1544373748007N00054780WA0000000319
B1544423748002N00054797WA0000000316
B1544473747998N00054817WA0000000313
B1544523747995N00054836WA0000000309
B1544573747992N00054856WA0000000305
B1545023747992N00054878WA0000000300
B1545073747992N00054902WA0000000296
B1545123747995N00054926WA0000000289
B1545173748002N00054952WA0000000285
B1545223748006N00054979WA0000000284
B1545273748005N00055003WA0000000282
B1545323747995N00055007WA0000000280
B1545373747983N00054989WA0000000277
B1545423747975N00054961WA0000000273
B1545473747973N00054928WA0000000270
B1545523747973N00054895WA0000000265
B1545573747973N00054859WA0000000260
B1546023747974N00054823WA0000000257
B1546073747978N00054787WA0000000254
B1546123747986N00054752WA0000000251
B1546173748005N00054717WA0000000252
B1546223748026N00054681WA0000000252
B1546273748042N00054646WA0000000252
B1546323748053N00054611WA0000000253
B1546373748058N00054576WA0000000257
B1546423748058N00054547WA0000000263
B1546473748056N00054516WA0000000268
B1546523748048N00054489WA0000000271
B1546573748038N00054491WA0000000271
B1547023748053N00054511WA0000000273
B1547073748065N00054531WA0000000276
B1547123748068N00054557WA0000000281
B1547173748068N00054580WA0000000286
B1547223748070N00054602WA0000000290
B1547273748081N00054625WA0000000293
B1547323748083N00054648WA0000000297
B1547373748082N00054667WA0000000300
B1547423748086N00054689WA0000000299
B1547473748080N00054676WA0000000296
B1547523748071N00054657WA0000000297
B1547573748064N00054632WA0000000302
B1548023748055N00054615WA0000000306
B1548073748045N00054602WA0000000307
B1548123748046N00054568WA0000000310
B1548173748057N00054528WA0000000314
B1548223748063N00054489WA0000000316
B1548273748052N00054475WA0000000317
B1548323748041N00054476WA0000000320
B1548373748033N00054474WA0000000323
B1548423748027N00054473WA0000000322
B1548473748022N00054471WA0000000321
B1548523748017N00054469WA0000000319
B1548573748008N00054476WA0000000314
B1549023748003N00054478WA0000000312
B1549073748008N00054497WA0000000305
B1549123748039N00054506WA0000000306
B1549173748062N00054522WA0000000307
B1549223748076N00054543WA0000000310
B1549273748083N00054562WA0000000313
B1549323748083N00054579WA0000000316
B1549373748080N00054593WA0000000319
B1549423748077N00054608WA0000000320
B1549473748078N00054627WA0000000324
B1549523748079N00054644WA0000000325
B1549573748070N00054623WA0000000327
B1550023748064N00054596WA0000000326
B1550073748064N00054564WA0000000328
B1550123748067N00054530WA0000000332
B1550173748064N00054504WA0000000335
B1550223748055N00054487WA0000000337
B1550273748049N00054496WA0000000336
B1550323748061N00054514WA0000000338
B1550373748069N00054532WA0000000340
B1550423748070N00054549WA0000000339
B1550473748075N00054571WA0000000342
B1550523748081N00054594WA0000000342
B1550573748087N00054620WA0000000343
B1551023748094N00054643WA0000000344
B1551073748089N00054654WA0000000344
B1551123748078N00054649WA0000000344
B1551173748072N00054623WA0000000346
B1551223748073N00054593WA0000000348
B1551273748065N00054588WA0000000348
B1551323748072N00054607WA0000000350
B1551373748076N00054627WA0000000351
B1551423748066N00054623WA0000000355
B1551473748058N00054607WA0000000355
B1551523748046N00054591WA0000000355
B1551573748036N00054578WA0000000357
B1552023748026N00054561WA0000000356
B1552073748022N00054533WA0000000357
B1552123748021N00054501WA0000000356
B1552173748019N00054466WA0000000355
B1552223748012N00054436WA0000000352
B1552273748000N00054416WA0000000348
B1552323747988N00054400WA0000000343
B1552373747976N00054386WA0000000339
B1552423747964N00054370WA0000000334
B1552473747953N00054356WA0000000329
B1552523747942N00054340WA0000000325
B1552573747930N00054325WA0000000321
B1553023747919N00054304WA0000000317
B1553073747910N00054278WA0000000313
B1553123747901N00054251WA0000000310
B1553173747892N00054228WA0000000309
B1553223747883N00054212WA0000000304
B1553273747872N00054195WA0000000301
B1553323747861N00054178WA0000000300
B1553373747850N00054160WA0000000295
B1553423747840N00054141WA0000000291
B1553473747829N00054120WA0000000288
B1553523747819N00054096WA0000000283
B1553573747810N00054073WA0000000278
B1554023747804N00054044WA0000000275
B1554073747801N00054011WA0000000272
B1554123747801N00053974WA0000000265
B1554173747805N00053932WA0000000261
B1554223747815N00053893WA0000000259
B1554273747830N00053855WA0000000256
B1554323747848N00053818WA0000000253
B1554373747866N00053783WA0000000251
B1554423747880N00053746WA0000000247
B1554473747891N00053710WA0000000243
B1554523747902N00053670WA0000000240
B1554573747912N00053629WA0000000238
B1555023747914N00053594WA0000000236
B1555073747911N00053598WA0000000233
B1555123747915N00053616WA0000000231
B1555173747918N00053634WA0000000231
B1555223747921N00053651WA0000000228
B1555273747921N00053667WA0000000225
B1555323747921N00053682WA0000000222
B1555373747922N00053698WA0000000217
B1555423747926N00053717WA0000000215
B1555473747929N00053733WA0000000212
B1555523747931N00053751WA0000000211
B1555573747929N00053767WA0000000209
B1556023747926N00053783WA0000000207
B1556073747924N00053800WA0000000204
B1556123747924N00053817WA0000000201
B1556173747918N00053833WA0000000198
B1556223747913N00053849WA0000000197
B1556273747909N00053867WA0000000193
B1556323747905N00053888WA0000000191
B1556373747907N00053908WA0000000193
B1556423747917N00053931WA0000000193
B1556473747935N00053952WA0000000191
B1556523747942N00053974WA0000000192
B1556573747936N00053975WA0000000191
B1557023747927N00053956WA0000000191
B1557073747919N00053933WA0000000189
B1557123747923N00053896WA0000000192
B1557173747912N00053887WA0000000189
B1557223747926N00053907WA0000000189
B1557273747940N00053929WA0000000192
B1557323747940N00053942WA0000000195
B1557373747932N00053950WA0000000196
B1557423747919N00053952WA0000000196
B1557473747909N00053954WA0000000200
B1557523747898N00053956WA0000000199
B1557573747891N00053962WA0000000201
B1558023747883N00053969WA0000000198
B1558073747874N00053980WA0000000191
B1558123747866N00053995WA0000000189
B1558173747858N00054010WA0000000189
B1558223747853N00054024WA0000000184
B1558273747850N00054039WA0000000177
B1558323747847N00054053WA0000000176
B1558373747844N00054066WA0000000171
B1558423747847N00054083WA0000000167
B1558473747850N00054101WA0000000163
B1558523747854N00054119WA0000000163
B1558573747860N00054138WA0000000167
B1559023747868N00054157WA0000000166
B1559073747880N00054177WA0000000171
B1559123747886N00054202WA0000000174
B1559173747904N00054227WA0000000177
B1559223747923N00054253WA0000000181
B1559273747919N00054271WA0000000184
B1559323747909N00054252WA0000000187
B1559373747903N00054233WA0000000187
B1559423747898N00054210WA0000000188
B1559473747893N00054188WA0000000193
B1559523747889N00054160WA0000000198
B1559573747881N00054142WA0000000201
B1600023747890N00054158WA0000000204
B1600073747898N00054175WA0000000209
B1600123747916N00054196WA0000000213
B1600173747930N00054216WA0000000215
B1600223747922N00054208WA0000000219
B1600273747913N00054203WA0000000217
B1600323747902N00054196WA0000000220
B1600373747893N00054202WA0000000224
B1600423747887N00054212WA0000000226
B1600473747880N00054222WA0000000226
B1600523747877N00054235WA0000000224
B1600573747874N00054254WA0000000222
B1601023747872N00054269WA0000000223
B1601073747870N00054286WA0000000223
B1601123747870N00054304WA0000000221
B1601173747872N00054320WA0000000218
B1601223747872N00054336WA0000000216
B1601273747869N00054351WA0000000212
B1601323747865N00054368WA0000000212
B1601373747863N00054386WA0000000209
B1601423747875N00054408WA0000000207
B1601473747898N00054425WA0000000205
B1601523747923N00054443WA0000000202
B1601573747951N00054458WA0000000202
B1602023747970N00054475WA0000000203
B1602073747963N00054487WA0000000203
B1602123747950N00054485WA0000000201
B1602173747937N00054466WA0000000203
B1602223747924N00054446WA0000000203
B1602273747911N00054441WA0000000202
B1602323747898N00054425WA0000000204
B1602373747886N00054404WA0000000201
B1602423747877N00054376WA0000000201
B1602473747868N00054350WA0000000199
B1602523747863N00054317WA0000000196
B1602573747863N00054280WA0000000195
B1603023747866N00054246WA0000000197
B1603073747861N00054219WA0000000194
B1603123747854N00054193WA0000000190
B1603173747845N00054169WA0000000185
B1603223747832N00054149WA0000000183
B1603273747819N00054129WA0000000183
B1603323747807N00054107WA0000000180
B1603373747794N00054088WA0000000177
B1603423747783N00054076WA0000000174
B1603473747783N00054046WA0000000164
B1603523747789N00054007WA0000000160
B1603573747806N00053966WA0000000153
B1604023747797N00053962WA0000000146
B1604073747787N00053960WA0000000136
B1604123747781N00053932WA0000000131
B1604173747792N00053945WA0000000118
B1604223747806N00053962WA0000000110
B1604273747792N00053944WA0000000106
B1604323747776N00053940WA0000000098
B1604373747766N00053932WA0000000088
B1604423747779N00053951WA0000000080
B1604473747775N00053974WA0000000073
B1604523747774N00053991WA0000000066
B1604573747775N00053999WA0000000063
LXCG     VERSION:5.7
GAA23DE95E09015C6ECD5853036FCB124D9414819761420BE45824F8ED4267B7019943
G3C5DC313E871FC2AE8E233A3DD76A2E391516716F1641E7F90430F573B4E4ADA6EA
GDBE6C529A8FECE683FC26D713DEFE2DA54187715427A09A82B1DC320C5B8679D608
GF07548DC5A94219B4C395AA58A077DF6B20D738FF67CC601E721D152AA302